Woody Point, Canada
Current Conditions -  °F | °C
As of 5:00 PM on Thursday 30 Oct 2014 (Local Time) from CYDF Reporting Station
Rain Showers Rain Showers  
Wind Chill: 10°   Ceiling: 21000
Heat Index: 10°   Visibility: 15mi
Dew Point:   Wind: 10mph
Humidity: 76%   Direction: 260°W
Pressure: 29.61"   Gusts: 20mph
Location:  49.5°N, 57.93°W
Report Text: CYDF 301900Z 26009G17KT 15SM VCSH SCT021 BKN210 10/06 A2961 RMK SC3CI2 SLP026
Loading
Personal Weather Stations






























Interactive Weather Map
Tropical Storm Tracking
New forecast layout! Learn more

10-Day Weather Forecast

Advertisements
Track Severe Weather on mobile